Time;durP1;ratioP1;P1;durP2;ratioP2;P2;SDS_P1;SDS_P2;PMS_P1;PMS_P2;Temp;Humidity;BMP_temperature;BMP_pressure;BME280_temperature;BME280_humidity;BME280_pressure;Samples;Min_cycle;Max_cycle;Signal;HPM_P1;HPM_P2
2021/05/26 00:01:44;;;;;;;11.07;2.33;;;11.80;90.90;;;10.66;82.40;100303.50;5031269;28;20045;-77
2021/05/26 00:04:22;;;;;;;6.38;2.42;;;11.60;90.70;;;10.62;82.23;100294.03;5031330;28;20400;-78
2021/05/26 00:07:00;;;;;;;6.88;2.42;;;11.60;90.80;;;10.60;81.84;100293.38;5031425;28;20789;-77
2021/05/26 00:09:39;;;;;;;6.75;2.25;;;11.60;90.50;;;10.54;81.74;100295.81;5031130;28;20050;-78
2021/05/26 00:12:18;;;;;;;9.85;2.42;;;11.50;90.60;;;10.50;81.77;100289.06;5031391;28;20049;-78
2021/05/26 00:14:56;;;;;;;5.57;2.33;;;11.50;90.40;;;10.45;81.83;100288.81;5031056;28;20107;-77
2021/05/26 00:17:31;;;;;;;6.68;2.03;;;11.40;90.20;;;10.39;81.67;100281.41;5031362;28;20052;-77
2021/05/26 00:20:07;;;;;;;7.00;2.17;;;11.40;90.20;;;10.40;82.01;100277.66;5030903;28;20060;-78
2021/05/26 00:22:47;;;;;;;5.85;2.05;;;11.40;90.30;;;10.39;81.92;100286.84;5031229;28;20045;-77
2021/05/26 00:25:26;;;;;;;7.25;2.30;;;11.30;90.30;;;10.37;82.05;100283.47;5031122;28;20045;-77
2021/05/26 00:28:04;;;;;;;9.40;2.45;;;11.30;90.40;;;10.35;81.86;100275.50;5031077;28;20410;-78
2021/05/26 00:30:45;;;;;;;7.85;2.55;;;11.30;90.50;;;10.34;81.41;100272.97;5030813;28;20653;-78
2021/05/26 00:33:22;;;;;;;6.75;2.95;;;11.30;90.30;;;10.32;81.76;100275.88;5030814;28;20087;-77
2021/05/26 00:35:58;;;;;;;11.18;2.85;;;11.20;90.30;;;10.29;81.43;100270.78;5030725;28;20046;-77
2021/05/26 00:38:33;;;;;;;12.73;2.83;;;11.20;90.30;;;10.28;81.34;100269.09;5030239;28;20053;-78
2021/05/26 00:41:10;;;;;;;6.70;2.70;;;11.20;90.20;;;10.26;81.61;100262.16;5029999;28;20394;-78
2021/05/26 00:43:48;;;;;;;7.13;2.63;;;11.20;90.30;;;10.27;81.47;100266.56;5030485;28;20054;-78
2021/05/26 00:46:26;;;;;;;6.10;2.38;;;11.20;90.20;;;10.26;81.54;100264.88;5012740;28;20050;-78
2021/05/26 00:49:04;;;;;;;7.43;2.70;;;11.10;90.30;;;10.27;81.58;100256.53;5012625;28;20164;-78
2021/05/26 00:51:42;;;;;;;5.30;2.70;;;11.10;90.20;;;10.26;81.32;100256.72;5030298;28;20045;-78
2021/05/26 00:54:21;;;;;;;4.60;2.15;;;11.10;90.30;;;10.25;81.08;100257.75;5012621;28;20045;-78
2021/05/26 00:56:57;;;;;;;7.90;2.42;;;11.10;90.20;;;10.22;80.96;100258.13;5030547;28;20046;-77
2021/05/26 00:59:35;;;;;;;6.63;2.55;;;11.10;90.20;;;10.18;81.28;100247.63;5012372;28;20060;-78
2021/05/26 01:02:13;;;;;;;4.90;2.05;;;11.10;90.20;;;10.17;81.24;100245.94;5012546;28;20521;-78
2021/05/26 01:04:49;;;;;;;7.60;2.17;;;11.10;90.30;;;10.15;81.30;100248.00;5012022;28;20045;-77
2021/05/26 01:07:24;;;;;;;7.53;2.40;;;11.00;90.10;;;10.17;81.24;100256.81;5030249;28;20045;-77
2021/05/26 01:10:00;;;;;;;5.78;2.30;;;11.00;90.20;;;10.20;81.08;100246.59;5029869;28;20037;-78
2021/05/26 01:12:41;;;;;;;6.57;2.42;;;11.00;90.20;;;10.18;81.26;100241.34;5030097;28;20052;-77
2021/05/26 01:15:18;;;;;;;7.63;2.53;;;11.00;90.30;;;10.20;81.39;100243.88;5030193;28;20049;-77
2021/05/26 01:17:59;;;;;;;6.30;2.42;;;11.00;90.50;;;10.18;81.78;100236.75;5030291;28;20144;-77
2021/05/26 01:20:42;;;;;;;8.38;2.65;;;11.00;90.70;;;10.19;82.09;100237.59;5011735;28;20066;-77
2021/05/26 01:23:22;;;;;;;8.00;2.38;;;11.00;90.90;;;10.24;81.83;100239.75;5029884;28;20131;-78
2021/05/26 01:26:10;;;;;;;8.25;2.67;;;11.00;91.00;;;10.23;82.48;100243.50;5011866;28;20045;-77
2021/05/26 01:28:50;;;;;;;7.00;2.60;;;11.00;91.30;;;10.25;82.71;100236.00;5011940;28;20072;-78
2021/05/26 01:31:32;;;;;;;6.18;2.80;;;11.10;91.50;;;10.31;82.86;100235.28;5011706;28;20136;-78
2021/05/26 01:34:12;;;;;;;9.73;3.00;;;11.10;91.80;;;10.33;82.81;100227.75;5011550;28;20038;-78
2021/05/26 01:36:52;;;;;;;9.77;3.00;;;11.10;91.80;;;10.35;83.43;100231.97;5010167;28;20080;-78
2021/05/26 01:39:28;;;;;;;10.68;2.95;;;11.20;92.10;;;10.39;83.40;100229.72;5029546;28;20038;-78
2021/05/26 01:42:07;;;;;;;8.70;2.47;;;11.20;92.20;;;10.40;83.66;100223.25;5029696;28;20121;-78
2021/05/26 01:44:43;;;;;;;10.23;3.42;;;11.20;92.30;;;10.41;83.84;100227.63;5011304;28;20041;-78
2021/05/26 01:47:35;;;;;;;9.07;3.10;;;11.20;92.50;;;10.44;83.67;100224.53;5011556;28;20053;-77
2021/05/26 01:50:23;;;;;;;10.02;3.63;;;11.30;92.50;;;10.46;83.94;100217.03;5028897;28;20053;-77
2021/05/26 01:53:11;;;;;;;8.55;2.95;;;11.30;92.70;;;10.46;83.78;100219.75;5029209;28;20052;-78
2021/05/26 01:55:52;;;;;;;9.40;3.35;;;11.30;92.70;;;10.49;83.73;100222.09;5011489;28;20083;-78
2021/05/26 01:58:27;;;;;;;13.65;3.25;;;11.30;92.60;;;10.49;83.76;100211.22;5029363;28;20121;-77
2021/05/26 02:01:07;;;;;;;8.77;3.30;;;11.40;92.60;;;10.52;83.73;100210.81;5028973;28;20091;-77
2021/05/26 02:03:57;;;;;;;9.13;3.22;;;11.40;92.50;;;10.52;83.59;100210.81;5011080;28;20513;-77
2021/05/26 02:06:36;;;;;;;11.98;3.42;;;11.40;92.30;;;10.51;83.64;100209.16;4983105;28;20516;-78
2021/05/26 02:09:14;;;;;;;10.90;3.55;;;11.40;92.30;;;10.55;83.83;100210.44;5011305;28;20605;-77
2021/05/26 02:14:43;;;;;;;8.88;3.30;;;11.40;92.40;;;10.55;84.04;100199.56;5011106;28;20051;-77
2021/05/26 02:17:18;;;;;;;13.65;3.92;;;11.50;92.80;;;10.55;84.26;100194.13;5027485;28;20049;-78
2021/05/26 02:19:55;;;;;;;12.32;3.92;;;11.40;92.80;;;10.58;83.77;100187.44;5010614;28;20435;-77
2021/05/26 02:22:28;;;;;;;7.88;3.20;;;11.50;92.70;;;10.57;84.10;100189.31;5028795;28;20100;-78
2021/05/26 02:25:06;;;;;;;17.35;4.18;;;11.40;92.60;;;10.60;83.92;100185.38;5010666;28;20081;-78
2021/05/26 02:27:50;;;;;;;12.88;3.90;;;11.50;92.70;;;10.60;83.71;100184.53;5028822;28;20041;-78
2021/05/26 02:30:34;;;;;;;11.27;3.88;;;11.50;92.50;;;10.62;83.62;100187.91;5028288;28;20041;-78
2021/05/26 02:33:12;;;;;;;17.38;4.72;;;11.50;92.50;;;10.64;83.70;100181.25;5028637;28;20045;-77
2021/05/26 02:35:52;;;;;;;11.38;4.03;;;11.50;92.40;;;10.66;83.49;100178.31;5010764;28;20056;-78
2021/05/26 02:38:30;;;;;;;11.93;3.63;;;11.50;92.60;;;10.66;83.57;100178.31;5028701;28;20052;-78
2021/05/26 02:41:10;;;;;;;11.77;3.60;;;11.50;92.60;;;10.66;83.61;100167.44;5010473;28;20053;-78
2021/05/26 02:43:50;;;;;;;19.05;4.35;;;11.50;92.60;;;10.67;83.33;100167.25;5010630;28;20129;-78
2021/05/26 02:46:39;;;;;;;15.70;4.00;;;11.50;92.30;;;10.69;83.29;100164.31;5010848;28;20049;-78
2021/05/26 02:49:18;;;;;;;10.18;3.90;;;11.50;92.20;;;10.68;83.46;100168.94;5028555;28;20429;-78
2021/05/26 02:51:55;;;;;;;10.35;3.85;;;11.50;92.40;;;10.67;83.65;100161.78;5028559;28;20037;-77
2021/05/26 02:54:31;;;;;;;13.90;5.13;;;11.50;92.40;;;10.69;83.73;100169.78;5010597;28;20069;-78
2021/05/26 02:57:09;;;;;;;11.52;3.95;;;11.60;92.50;;;10.69;83.56;100167.06;5028328;28;20125;-77
2021/05/26 03:00:13;;;;;;;13.23;3.85;;;11.60;92.50;;;10.70;83.59;100168.72;5010234;28;20057;-77
2021/05/26 03:03:11;;;;;;;11.43;3.85;;;11.60;92.50;;;10.68;84.02;100162.63;5028716;28;20053;-77
2021/05/26 03:05:51;;;;;;;15.77;4.30;;;11.60;92.60;;;10.68;83.83;100165.34;5014408;28;20052;-77
2021/05/26 03:08:29;;;;;;;20.27;4.55;;;11.60;92.40;;;10.67;84.23;100164.53;5014469;28;20136;-78
2021/05/26 03:11:08;;;;;;;14.95;4.00;;;11.60;92.60;;;10.68;84.04;100170.78;5014249;28;20169;-77
2021/05/26 03:14:02;;;;;;;18.63;4.75;;;11.60;92.70;;;10.67;84.01;100155.53;5014253;28;20513;-76
2021/05/26 03:16:41;;;;;;;15.98;4.35;;;11.60;92.60;;;10.68;83.75;100158.06;5032299;28;20386;-78
2021/05/26 03:19:21;;;;;;;20.20;4.35;;;11.60;92.30;;;10.69;84.07;100157.00;5014321;28;20452;-78
2021/05/26 03:21:58;;;;;;;10.57;4.03;;;11.60;92.40;;;10.72;84.18;100158.50;5014349;28;20056;-79
2021/05/26 03:24:51;;;;;;;16.15;4.05;;;11.70;92.70;;;10.72;83.83;100159.34;5031524;28;20037;-79
2021/05/26 03:27:34;;;;;;;11.85;3.75;;;11.70;92.50;;;10.72;83.96;100153.06;5031965;28;20674;-79
2021/05/26 03:30:15;;;;;;;13.85;3.90;;;11.70;92.60;;;10.72;83.73;100150.34;5031646;28;20049;-79
2021/05/26 03:32:52;;;;;;;13.32;4.13;;;11.60;92.30;;;10.73;83.74;100157.47;5031766;28;20670;-79
2021/05/26 03:35:30;;;;;;;15.82;4.53;;;11.70;92.50;;;10.74;83.67;100160.00;5031905;28;20042;-78
2021/05/26 03:38:12;;;;;;;20.17;4.90;;;11.70;92.50;;;10.73;84.17;100157.47;5013911;28;20060;-78
2021/05/26 03:41:04;;;;;;;14.18;4.20;;;11.70;92.60;;;10.70;84.17;100152.38;5025546;28;20545;-76
2021/05/26 03:43:44;;;;;;;18.67;4.43;;;11.70;92.70;;;10.71;83.87;100154.09;5031150;22;20028;-82
2021/05/26 03:46:24;;;;;;;15.80;4.50;;;11.70;92.40;;;10.73;83.55;100152.00;5033480;28;20171;-85
2021/05/26 03:49:07;;;;;;;16.90;4.20;;;11.70;92.20;;;10.73;83.69;100152.00;5033569;28;20045;-84
2021/05/26 03:51:45;;;;;;;15.43;4.28;;;11.70;92.30;;;10.71;83.31;100148.66;5051157;28;20134;-83
2021/05/26 03:54:22;;;;;;;14.48;4.32;;;11.70;92.20;;;10.72;83.25;100144.91;5042679;28;20056;-83
2021/05/26 03:56:58;;;;;;;13.73;4.47;;;11.70;92.10;;;10.72;83.30;100136.75;5053427;28;20842;-82
2021/05/26 03:59:36;;;;;;;16.55;4.25;;;11.70;92.10;;;10.72;83.47;100145.72;5071140;28;20041;-83
2021/05/26 04:02:15;;;;;;;11.50;4.03;;;11.60;92.00;;;10.71;83.18;100137.75;5053144;28;20048;-82
2021/05/26 04:04:53;;;;;;;18.45;4.15;;;11.70;91.90;;;10.73;83.02;100138.41;5070983;28;20033;-83
2021/05/26 04:07:33;;;;;;;9.57;3.60;;;11.70;91.80;;;10.72;83.35;100143.00;5069787;28;20048;-83
2021/05/26 04:10:10;;;;;;;14.27;3.85;;;11.70;92.00;;;10.72;83.21;100155.78;5070777;28;20469;-82
2021/05/26 04:12:46;;;;;;;13.80;3.30;;;11.70;92.00;;;10.75;83.58;100139.88;5071041;28;20052;-83
2021/05/26 04:15:31;;;;;;;14.00;3.70;;;11.70;92.00;;;10.76;83.46;100140.75;5052887;28;20580;-82
2021/05/26 04:18:35;;;;;;;12.05;3.47;;;11.70;92.00;;;10.77;83.40;100139.69;5070841;28;20075;-83
2021/05/26 04:21:12;;;;;;;10.27;3.45;;;11.70;92.00;;;10.77;83.61;100139.69;5052622;28;20107;-82
2021/05/26 04:23:50;;;;;;;9.13;3.22;;;11.70;92.20;;;10.76;83.54;100129.84;5070806;28;20041;-82
2021/05/26 04:26:26;;;;;;;14.40;3.22;;;11.70;92.20;;;10.75;83.58;100139.03;5052891;28;20109;-83
2021/05/26 04:29:03;;;;;;;9.00;3.25;;;11.70;92.10;;;10.75;83.50;100136.31;5052830;28;20447;-82
2021/05/26 04:31:38;;;;;;;10.15;2.83;;;11.70;92.00;;;10.77;83.14;100136.97;5052489;28;20052;-82
2021/05/26 04:34:13;;;;;;;9.80;2.90;;;11.70;92.00;;;10.77;83.30;100136.97;5070677;28;20093;-81
2021/05/26 04:36:57;;;;;;;10.63;3.53;;;11.70;92.00;;;10.77;83.68;100136.97;5052537;28;20526;-82
2021/05/26 04:39:29;;;;;;;8.73;2.72;;;11.70;92.20;;;10.79;83.21;100132.16;5070339;28;20040;-81
2021/05/26 04:42:04;;;;;;;10.52;3.00;;;11.70;91.90;;;10.81;83.26;100132.81;5070507;28;20505;-83
2021/05/26 04:44:43;;;;;;;9.98;2.85;;;11.70;92.00;;;10.80;83.38;100131.16;5052088;28;20497;-82
2021/05/26 04:47:24;;;;;;;8.65;3.10;;;11.70;92.10;;;10.77;83.08;100131.53;5052438;28;20147;-83
2021/05/26 04:49:56;;;;;;;6.90;2.80;;;11.70;91.90;;;10.79;83.06;100134.91;5070140;28;20094;-82
2021/05/26 04:52:36;;;;;;;12.20;3.80;;;11.70;91.70;;;10.80;83.10;100122.16;5052230;28;20425;-81
2021/05/26 04:55:20;;;;;;;8.18;2.67;;;11.80;91.60;;;10.79;83.24;100134.91;5070272;28;20040;-83
2021/05/26 04:58:04;;;;;;;12.93;2.92;;;11.70;91.90;;;10.79;83.07;100129.44;5070318;28;20044;-83
2021/05/26 05:00:42;;;;;;;6.78;2.50;;;11.70;91.90;;;10.75;83.14;100129.00;5069828;28;20045;-82
2021/05/26 05:03:20;;;;;;;8.35;2.67;;;11.70;91.70;;;10.77;83.73;100120.63;5052079;28;20060;-83
2021/05/26 05:05:58;;;;;;;10.18;2.60;;;11.70;92.00;;;10.77;83.56;100120.63;5051953;28;20040;-81
2021/05/26 05:08:38;;;;;;;10.88;2.80;;;11.70;91.90;;;10.78;83.35;100122.34;5070014;28;20040;-77
2021/05/26 05:11:16;;;;;;;8.60;2.83;;;11.70;92.00;;;10.78;83.56;100121.50;5051586;28;20523;-79
2021/05/26 05:13:54;;;;;;;11.25;3.15;;;11.80;92.20;;;10.79;83.40;100112.28;5069809;28;20446;-79
2021/05/26 05:16:32;;;;;;;9.05;2.45;;;11.80;92.00;;;10.81;83.39;100119.19;5069539;28;20118;-79
2021/05/26 05:19:08;;;;;;;5.40;2.20;;;11.80;92.10;;;10.80;83.12;100114.81;5069688;28;20051;-79
2021/05/26 05:21:43;;;;;;;6.20;2.30;;;11.80;91.70;;;10.80;83.01;100109.38;5069448;28;20056;-78
2021/05/26 05:24:26;;;;;;;10.68;3.22;;;11.80;91.60;;;10.81;82.81;100115.66;5069384;28;20040;-78
2021/05/26 05:27:01;;;;;;;9.88;2.10;;;11.80;91.40;;;10.82;82.56;100112.75;5068874;28;20055;-81
2021/05/26 05:29:36;;;;;;;8.45;2.63;;;11.80;91.30;;;10.84;82.97;100116.09;5069213;28;20051;-80
2021/05/26 05:32:09;;;;;;;9.13;2.20;;;11.80;91.50;;;10.84;83.21;100107.94;5069237;28;20579;-79
2021/05/26 05:34:47;;;;;;;6.07;2.20;;;11.80;91.70;;;10.85;83.50;100106.91;5069424;28;20121;-80
2021/05/26 05:37:25;;;;;;;8.00;2.25;;;11.80;91.90;;;10.87;83.46;100110.28;5066242;28;20170;-80
2021/05/26 05:40:02;;;;;;;8.18;2.35;;;11.90;92.00;;;10.88;83.74;100111.94;5069199;28;20076;-80
2021/05/26 05:42:34;;;;;;;8.73;2.40;;;11.90;92.30;;;10.88;83.71;100106.50;5069330;28;20053;-80
2021/05/26 05:45:07;;;;;;;7.55;2.17;;;11.90;92.20;;;10.90;83.51;100109.03;5051090;28;20074;-81
2021/05/26 05:47:47;;;;;;;10.02;2.67;;;11.90;92.10;;;10.90;83.76;100109.88;5069260;28;20048;-81
2021/05/26 05:50:26;;;;;;;8.10;2.25;;;11.90;92.20;;;10.92;83.82;100107.78;5050831;28;20052;-81
2021/05/26 05:53:05;;;;;;;8.60;2.53;;;11.90;92.40;;;10.95;83.76;100101.13;5069075;28;20055;-80
2021/05/26 05:55:41;;;;;;;9.38;2.30;;;12.00;92.20;;;11.00;83.75;100108.69;5068430;28;20112;-80
2021/05/26 05:58:21;;;;;;;9.32;2.50;;;11.90;92.20;;;11.02;83.91;100103.88;5069021;28;20040;-80
2021/05/26 06:00:54;;;;;;;8.57;2.70;;;12.00;92.40;;;11.02;84.07;100106.59;5068759;28;20045;-80
2021/05/26 06:03:32;;;;;;;7.72;2.53;;;12.00;92.40;;;11.02;83.89;100107.44;5068909;28;20048;-79
2021/05/26 06:06:08;;;;;;;6.53;2.28;;;12.00;92.20;;;11.04;83.75;100093.63;5068835;28;20036;-86
2021/05/26 06:08:44;;;;;;;8.90;2.80;;;12.00;92.20;;;11.05;83.44;100101.59;5048568;28;20048;-84
2021/05/26 06:11:15;;;;;;;7.45;2.60;;;12.00;92.00;;;11.06;83.20;100097.00;5069305;28;20117;-86
2021/05/26 06:13:50;;;;;;;9.38;2.40;;;12.00;91.80;;;11.06;83.08;100091.56;5050740;28;20424;-85
2021/05/26 06:16:28;;;;;;;4.70;1.92;;;12.00;91.80;;;11.07;82.86;100093.25;5068850;28;20044;-84
2021/05/26 06:19:09;;;;;;;6.00;1.92;;;12.10;91.90;;;11.08;82.91;100084.88;5050790;28;20051;-85
2021/05/26 06:21:47;;;;;;;5.82;2.30;;;12.10;91.60;;;11.10;82.83;100087.38;5068294;28;20500;-84
2021/05/26 06:24:23;;;;;;;7.82;2.25;;;12.10;91.50;;;11.10;82.62;100081.94;5068378;28;20044;-85
2021/05/26 06:27:03;;;;;;;6.75;2.50;;;12.10;91.30;;;11.16;82.81;100083.88;5068499;28;20052;-86
2021/05/26 06:29:41;;;;;;;6.75;2.08;;;12.10;91.20;;;11.20;83.00;100082.44;5050176;28;20052;-86
2021/05/26 06:32:17;;;;;;;7.72;2.13;;;12.10;91.40;;;11.20;82.94;100081.63;5068480;28;20040;-84
2021/05/26 06:34:52;;;;;;;6.50;1.92;;;12.20;91.40;;;11.22;82.44;100083.09;5068408;28;20771;-85
2021/05/26 06:37:30;;;;;;;6.45;2.10;;;12.20;91.20;;;11.24;82.60;100075.56;5064541;28;20110;-83
2021/05/26 06:40:06;;;;;;;8.35;2.20;;;12.20;91.10;;;11.23;82.90;100079.34;5067659;28;20074;-82
2021/05/26 06:42:45;;;;;;;8.20;2.03;;;12.20;91.40;;;11.26;82.80;100078.91;5065285;28;20044;-82
2021/05/26 06:45:23;;;;;;;7.28;2.10;;;12.20;91.50;;;11.27;82.81;100083.34;5066264;28;20041;-82
2021/05/26 06:48:01;;;;;;;5.68;1.90;;;12.30;91.30;;;11.28;82.96;100085.00;5068020;28;20490;-82
2021/05/26 06:50:39;;;;;;;5.53;1.85;;;12.30;91.30;;;11.29;82.55;100086.69;5067913;28;20052;-82
2021/05/26 06:53:17;;;;;;;9.50;2.08;;;12.30;91.10;;;11.29;82.29;100086.69;5068189;28;20049;-82
2021/05/26 06:55:56;;;;;;;5.43;1.90;;;12.30;90.90;;;11.35;82.51;100085.06;5067937;28;20047;-81
2021/05/26 06:58:35;;;;;;;8.23;2.50;;;12.30;90.90;;;11.37;82.38;100087.59;5067833;28;20072;-82
2021/05/26 07:01:07;;;;;;;6.50;2.53;;;12.40;90.90;;;11.40;82.85;100088.00;5067773;28;20090;-82
2021/05/26 07:03:45;;;;;;;5.65;1.80;;;12.40;91.00;;;11.41;82.40;100081.53;5067704;28;20097;-81
2021/05/26 07:06:20;;;;;;;8.10;1.80;;;12.40;91.10;;;11.45;82.67;100084.69;5067596;28;20036;-82
2021/05/26 07:08:59;;;;;;;6.85;1.90;;;12.50;90.90;;;11.45;82.31;100073.78;5049699;28;20059;-81
2021/05/26 07:11:34;;;;;;;4.22;1.70;;;12.50;90.50;;;11.47;81.96;100083.44;5067365;28;20041;-82
2021/05/26 07:14:10;;;;;;;6.22;1.90;;;12.50;90.60;;;11.48;82.34;100074.25;5067630;28;20052;-82
2021/05/26 07:16:48;;;;;;;7.15;1.80;;;12.60;90.30;;;11.51;82.69;100070.25;5067719;28;20504;-82
2021/05/26 07:19:26;;;;;;;6.57;2.10;;;12.60;90.60;;;11.56;82.77;100078.69;5049785;28;20048;-82
2021/05/26 07:22:01;;;;;;;5.30;1.60;;;12.60;90.70;;;11.58;82.05;100079.31;5067827;28;20051;-87
2021/05/26 07:24:37;;;;;;;6.00;1.73;;;12.70;90.60;;;11.61;83.28;100073.44;5067193;28;20039;-87
2021/05/26 07:27:12;;;;;;;4.13;1.67;;;12.80;90.60;;;11.65;82.28;100076.59;5067813;28;20045;-86
2021/05/26 07:29:53;;;;;;;5.07;2.00;;;12.80;90.20;;;11.72;82.33;100070.13;5066567;28;20044;-88
2021/05/26 07:32:33;;;;;;;3.90;1.67;;;12.90;90.00;;;11.76;82.35;100064.28;5067155;28;20558;-83
2021/05/26 07:35:09;;;;;;;6.88;1.77;;;12.90;90.00;;;11.80;82.22;100065.56;5049374;28;20794;-83
2021/05/26 07:37:47;;;;;;;8.35;1.83;;;13.00;89.80;;;11.83;81.91;100060.53;5068073;28;20036;-84
2021/05/26 07:40:25;;;;;;;3.97;1.50;;;13.00;89.60;;;11.85;82.08;100058.44;5067582;28;20771;-84
2021/05/26 07:43:04;;;;;;;4.70;1.60;;;13.10;89.40;;;11.92;81.49;100061.25;5067758;28;20097;-83
2021/05/26 07:45:47;;;;;;;7.07;1.77;;;13.10;89.00;;;11.89;80.72;100056.16;5067530;28;20051;-83
2021/05/26 07:48:25;;;;;;;6.20;1.60;;;13.10;88.30;;;11.97;81.28;100056.00;5067656;28;20052;-83
2021/05/26 07:51:04;;;;;;;3.92;1.52;;;13.20;89.00;;;12.06;82.16;100059.41;5071040;28;20047;-84
2021/05/26 07:53:42;;;;;;;5.15;1.80;;;13.30;89.50;;;12.08;80.48;100049.94;5071195;28;20056;-85
2021/05/26 07:56:15;;;;;;;5.25;1.55;;;13.30;88.40;;;12.10;80.31;100045.13;5071243;28;20040;-85
2021/05/26 07:58:52;;;;;;;4.32;1.48;;;13.30;88.00;;;12.14;79.71;100042.81;5053047;28;20045;-86
2021/05/26 08:01:36;;;;;;;3.55;1.20;;;13.30;87.60;;;12.15;78.96;100046.38;5070775;28;20489;-85
2021/05/26 08:04:08;;;;;;;2.88;1.15;;;13.40;86.90;;;12.24;81.92;100040.56;5071352;28;20052;-84
2021/05/26 08:06:47;;;;;;;4.30;1.20;;;13.50;88.50;;;12.30;81.06;100039.72;5071234;28;20902;-84
2021/05/26 08:09:24;;;;;;;2.85;1.05;;;13.60;87.80;;;12.31;79.63;100052.31;5071498;28;20119;-86
2021/05/26 08:12:02;;;;;;;5.40;1.40;;;13.70;87.10;;;12.31;79.04;100043.28;5070841;28;20083;-88
2021/05/26 08:14:40;;;;;;;4.25;1.58;;;13.70;86.50;;;12.27;77.83;100044.75;5070847;28;20095;-85
2021/05/26 08:17:13;;;;;;;4.15;1.50;;;13.70;85.70;;;12.33;78.61;100046.63;5071141;28;20048;-84
2021/05/26 08:19:51;;;;;;;4.30;1.40;;;13.70;86.10;;;12.35;78.30;100043.72;5070816;28;20060;-84
2021/05/26 08:22:29;;;;;;;3.63;1.40;;;13.70;86.00;;;12.36;79.17;100034.50;5071024;28;20060;-87
2021/05/26 08:25:04;;;;;;;4.60;1.10;;;13.70;85.90;;;12.36;77.08;100038.06;5070679;28;20443;-86
2021/05/26 08:27:42;;;;;;;3.08;1.35;;;13.80;84.40;;;12.38;78.11;100037.84;5070976;28;20155;-86
2021/05/26 08:30:21;;;;;;;5.03;1.30;;;13.80;85.50;;;12.36;78.08;100039.94;5070387;28;20106;-87
2021/05/26 08:32:57;;;;;;;7.40;1.73;;;13.70;85.50;;;12.37;78.68;100039.72;5071339;28;20045;-84
2021/05/26 08:35:35;;;;;;;4.93;1.50;;;13.70;86.10;;;12.36;79.36;100035.31;5052719;28;20041;-84
2021/05/26 08:38:13;;;;;;;4.50;1.88;;;13.60;86.50;;;12.38;78.93;100040.56;5054690;28;20083;-84
2021/05/26 08:40:51;;;;;;;7.30;1.30;;;13.70;86.40;;;12.39;78.93;100028.59;5070481;28;20143;-84
2021/05/26 08:43:29;;;;;;;5.05;1.35;;;13.60;86.30;;;12.38;78.96;100035.13;5070718;28;20080;-83
2021/05/26 08:46:09;;;;;;;3.42;1.30;;;13.60;85.90;;;12.36;78.12;100026.31;5070476;28;20053;-84
2021/05/26 08:48:54;;;;;;;2.95;1.23;;;13.60;85.70;;;12.33;78.01;100022.09;5070402;28;20109;-84
2021/05/26 08:51:34;;;;;;;4.68;1.40;;;13.50;85.80;;;12.33;77.20;100022.09;5070448;28;20052;-84
2021/05/26 08:54:07;;;;;;;5.18;1.50;;;13.50;85.40;;;12.32;77.50;100015.78;5070617;28;20059;-84
2021/05/26 08:56:46;;;;;;;3.35;1.42;;;13.50;85.40;;;12.41;78.09;100007.41;5070505;28;20070;-85
2021/05/26 08:59:24;;;;;;;3.15;1.20;;;13.60;85.50;;;12.46;78.06;100005.72;5070298;28;20056;-84
2021/05/26 09:02:03;;;;;;;4.32;1.50;;;13.70;85.60;;;12.49;78.44;100010.78;5069381;28;20067;-84
2021/05/26 09:04:40;;;;;;;3.65;1.30;;;13.70;85.50;;;12.52;79.10;100002.13;5070203;28;20057;-84
2021/05/26 09:07:30;;;;;;;5.70;1.83;;;13.80;86.00;;;12.64;82.84;100006.97;5070585;28;20066;-84
2021/05/26 09:10:10;;;;;;;3.78;1.10;;;13.90;87.90;;;12.61;77.78;100002.78;5069814;28;20078;-84
2021/05/26 09:12:47;;;;;;;3.95;1.50;;;14.00;84.50;;;12.67;79.03;100001.09;5070104;28;20761;-84
2021/05/26 09:15:25;;;;;;;4.50;1.25;;;14.00;85.40;;;12.68;77.59;99997.34;5070040;28;20048;-84
2021/05/26 09:18:02;;;;;;;7.47;1.92;;;14.10;84.20;;;12.74;77.97;99993.75;5070121;28;20053;-84
2021/05/26 09:20:41;;;;;;;3.85;1.40;;;14.20;84.10;;;12.82;78.89;99987.22;5067517;28;20067;-84
2021/05/26 09:23:23;;;;;;;4.13;1.20;;;14.30;84.80;;;12.89;79.47;99994.34;5065474;28;20052;-84
2021/05/26 09:26:01;;;;;;;2.85;1.10;;;14.30;85.00;;;12.95;77.72;99986.38;5067354;28;20040;-84
2021/05/26 09:28:35;;;;;;;3.17;1.20;;;14.40;83.70;;;12.97;76.86;99981.53;5068917;28;20037;-84
2021/05/26 09:31:14;;;;;;;4.38;1.40;;;14.40;82.70;;;12.98;76.33;99977.72;5066222;28;20055;-84
2021/05/26 09:33:54;;;;;;;5.22;1.38;;;14.40;82.80;;;12.98;76.26;99977.72;5066691;28;20052;-84
2021/05/26 09:36:28;;;;;;;4.78;1.23;;;14.50;83.10;;;12.99;75.83;99979.44;5067795;28;20044;-79
2021/05/26 09:39:05;;;;;;;4.35;1.55;;;14.50;81.80;;;13.05;77.86;99967.63;5066558;28;20392;-83
2021/05/26 09:41:49;;;;;;;2.60;1.00;;;14.50;83.00;;;13.14;76.20;99974.53;5066656;28;20055;-86
2021/05/26 09:44:27;;;;;;;4.68;1.17;;;14.60;81.90;;;13.13;76.29;99972.84;5083658;22;20023;-76
2021/05/26 09:47:05;;;;;;;4.30;1.20;;;14.60;82.80;;;13.08;74.94;99969.94;5065408;28;20056;-76
2021/05/26 09:49:40;;;;;;;2.60;1.20;;;14.60;82.00;;;13.08;75.35;99975.41;5066042;28;20040;-76
2021/05/26 09:52:19;;;;;;;2.42;1.10;;;14.60;82.40;;;13.09;75.62;99977.91;5065528;28;20062;-77
2021/05/26 09:54:57;;;;;;;4.97;1.20;;;14.60;82.60;;;13.11;75.62;99975.78;5067110;28;20891;-77
2021/05/26 09:57:35;;;;;;;3.08;1.13;;;14.50;81.60;;;13.10;75.35;99981.50;5053813;28;20101;-76
2021/05/26 10:00:09;;;;;;;3.47;1.17;;;14.50;82.30;;;13.09;75.88;99972.44;5069036;28;20056;-76
2021/05/26 10:02:44;;;;;;;2.80;1.10;;;14.50;82.70;;;13.08;74.67;99969.94;5068917;28;20048;-76
2021/05/26 10:05:22;;;;;;;4.00;1.20;;;14.50;82.30;;;13.07;73.00;99968.25;5067640;28;20145;-77
2021/05/26 10:08:24;;;;;;;3.88;1.00;;;14.50;81.70;;;13.11;74.51;99969.50;5068836;28;20182;-77
2021/05/26 10:11:26;;;;;;;11.32;1.35;;;14.50;81.10;;;13.25;75.75;99962.94;5067854;28;20045;-77
2021/05/26 10:13:56;;;;;;;;;;;14.60;81.70;;;13.38;74.14;99963.97;5052106;28;20129;-77
2021/05/26 10:16:32;;;;;;;6.78;1.35;;;14.80;81.30;;;13.52;76.05;99962.88;5067206;28;19925;-77
2021/05/26 10:19:14;;;;;;;3.22;1.00;;;14.90;82.90;;;13.58;73.71;99953.78;5065101;28;20143;-77
2021/05/26 10:21:49;;;;;;;;;;;15.00;80.30;;;13.69;76.40;99960.47;5068753;28;20492;-77
2021/05/26 10:24:29;;;;;;;4.32;1.10;;;15.10;80.90;;;13.74;74.17;99954.34;5068551;28;19920;-77
2021/05/26 10:27:07;;;;;;;2.05;0.82;;;15.20;80.70;;;13.77;74.49;99959.38;5068606;28;20435;-77
2021/05/26 10:29:47;;;;;;;3.50;1.20;;;15.30;79.70;;;13.70;71.24;99973.06;5066803;28;20048;-78
2021/05/26 10:33:00;;;;;;;2.55;0.95;;;15.30;77.40;;;13.62;69.01;99954.19;5068609;28;20051;-77
2021/05/26 10:35:34;;;;;;;3.42;1.50;;;15.30;76.60;;;13.54;69.60;99962.66;5053416;28;20056;-77
2021/05/26 10:38:13;;;;;;;2.65;1.08;;;15.20;75.90;;;13.63;72.89;99964.06;5068284;28;20523;-78
2021/05/26 10:40:58;;;;;;;2.42;0.90;;;15.20;78.80;;;13.73;71.70;99967.19;5060486;28;20044;-78
2021/05/26 10:43:35;;;;;;;3.58;1.15;;;15.30;78.70;;;13.81;73.07;99957.88;5058738;28;20135;-77
2021/05/26 10:46:34;;;;;;;7.68;1.42;;;15.40;78.70;;;13.92;74.72;99959.91;5056645;28;20040;-77
2021/05/26 10:49:17;;;;;;;2.38;0.90;;;15.40;80.50;;;13.84;70.40;99952.81;5066642;28;20412;-77
2021/05/26 10:52:14;;;;;;;2.20;1.00;;;15.50;76.90;;;13.83;69.98;99953.03;5068265;28;20550;-77
2021/05/26 10:55:07;;;;;;;3.00;1.08;;;15.50;77.00;;;13.83;71.69;99955.75;5066758;28;20045;-77
2021/05/26 10:58:20;;;;;;;2.13;0.90;;;15.50;76.80;;;13.82;69.59;99970.47;5056371;28;20054;-77
2021/05/26 11:01:16;;;;;;;5.60;1.55;;;15.50;76.50;;;13.81;72.22;99963.34;5063271;28;20065;-77
2021/05/26 11:03:54;;;;;;;3.90;0.93;;;15.40;77.70;;;13.81;70.96;99958.72;5068456;28;20499;-77
2021/05/26 11:06:49;;;;;;;4.78;1.10;;;15.40;77.10;;;13.81;71.23;99963.34;5068116;28;20702;-77